Time,TemperatureF,DewpointF,PressureIn,WindDirection,WindDirectionDegrees,WindSpeedMPH,WindSpeedGustMPH,Humidity,HourlyPrecipIn,Conditions,Clouds,dailyrainin,SoftwareType,DateUTC
2013-06-02 00:06:00,69.4,66.3,29.84,NNW,337,0.0,-999.0,90,-99.99,,,0.00,Acu-Link.com,2013-06-02 04:06:00,
2013-06-02 00:21:00,69.4,66.3,29.84,SE,135,0.0,-999.0,90,-99.99,,,0.00,Acu-Link.com,2013-06-02 04:21:00,
2013-06-02 00:36:00,69.6,66.9,29.84,NNE,22,0.0,-999.0,91,-99.99,,,0.00,Acu-Link.com,2013-06-02 04:36:00,
2013-06-02 00:52:00,69.8,66.7,29.83,SSW,202,0.0,-999.0,90,-99.99,,,0.00,Acu-Link.com,2013-06-02 04:52:00,
2013-06-02 01:07:00,69.6,66.5,29.83,SSE,157,0.0,-999.0,90,-99.99,,,0.00,Acu-Link.com,2013-06-02 05:07:00,
2013-06-02 01:22:00,69.3,66.2,29.83,SSE,157,0.0,-999.0,90,-99.99,,,0.00,Acu-Link.com,2013-06-02 05:22:00,
2013-06-02 01:37:00,68.9,66.2,29.83,SSE,157,0.0,-999.0,91,-99.99,,,0.00,Acu-Link.com,2013-06-02 05:37:00,
2013-06-02 01:53:00,68.5,65.8,29.83,SSE,157,0.0,-999.0,91,-99.99,,,0.00,Acu-Link.com,2013-06-02 05:53:00,
2013-06-02 02:08:00,68.2,65.8,29.83,South,180,0.0,-999.0,92,-99.99,,,0.00,Acu-Link.com,2013-06-02 06:08:00,
2013-06-02 02:23:00,67.8,65.7,29.83,South,180,0.0,-999.0,93,-99.99,,,0.00,Acu-Link.com,2013-06-02 06:23:00,
2013-06-02 02:38:00,67.6,65.8,29.82,ESE,112,0.0,-999.0,94,-99.99,,,0.00,Acu-Link.com,2013-06-02 06:38:00,
2013-06-02 02:53:00,67.1,65.3,29.82,East,90,0.0,-999.0,94,-99.99,,,0.00,Acu-Link.com,2013-06-02 06:53:00,
2013-06-02 03:09:00,67.1,65.6,29.81,NNW,337,0.0,-999.0,95,-99.99,,,0.00,Acu-Link.com,2013-06-02 07:09:00,
2013-06-02 03:24:00,66.9,65.4,29.81,South,180,0.0,-999.0,95,-99.99,,,0.00,Acu-Link.com,2013-06-02 07:24:00,
2013-06-02 03:39:00,66.7,65.2,29.82,South,180,0.0,-999.0,95,-99.99,,,0.00,Acu-Link.com,2013-06-02 07:39:00,
2013-06-02 03:55:00,66.6,65.4,29.81,NE,45,0.0,-999.0,96,-99.99,,,0.00,Acu-Link.com,2013-06-02 07:55:00,
2013-06-02 04:10:00,66.4,65.2,29.81,ENE,67,0.0,-999.0,96,-99.99,,,0.00,Acu-Link.com,2013-06-02 08:10:00,
2013-06-02 04:25:00,66.2,65.0,29.81,East,90,0.0,-999.0,96,-99.99,,,0.00,Acu-Link.com,2013-06-02 08:25:00,
2013-06-02 04:40:00,66.2,65.0,29.81,ESE,112,0.0,-999.0,96,-99.99,,,0.00,Acu-Link.com,2013-06-02 08:40:00,
2013-06-02 04:56:00,65.7,64.5,29.80,NNW,337,0.0,-999.0,96,-99.99,,,0.00,Acu-Link.com,2013-06-02 08:56:00,
2013-06-02 05:11:00,65.5,64.3,29.81,SSE,157,0.0,-999.0,96,-99.99,,,0.00,Acu-Link.com,2013-06-02 09:11:00,
2013-06-02 05:26:00,65.3,64.4,29.81,SSE,157,0.0,-999.0,97,-99.99,,,0.00,Acu-Link.com,2013-06-02 09:26:00,
2013-06-02 05:41:00,64.9,64.0,29.80,ESE,112,0.0,-999.0,97,-99.99,,,0.00,Acu-Link.com,2013-06-02 09:41:00,
2013-06-02 05:56:00,64.9,64.0,29.80,SSE,157,0.0,-999.0,97,-99.99,,,0.00,Acu-Link.com,2013-06-02 09:56:00,
2013-06-02 06:11:00,65.1,64.2,29.80,West,270,0.0,-999.0,97,-99.99,,,0.00,Acu-Link.com,2013-06-02 10:11:00,
2013-06-02 06:26:00,65.7,64.8,29.80,South,180,0.0,-999.0,97,-99.99,,,0.00,Acu-Link.com,2013-06-02 10:26:00,
2013-06-02 06:42:00,66.4,65.8,29.80,South,180,0.0,-999.0,98,-99.99,,,0.00,Acu-Link.com,2013-06-02 10:42:00,
2013-06-02 06:57:00,66.7,66.1,29.80,South,180,0.0,-999.0,98,-99.99,,,0.00,Acu-Link.com,2013-06-02 10:57:00,
2013-06-02 07:12:00,67.5,66.9,29.80,South,180,0.0,-999.0,98,-99.99,,,0.00,Acu-Link.com,2013-06-02 11:12:00,
2013-06-02 07:28:00,68.5,67.9,29.80,SSE,157,0.0,-999.0,98,-99.99,,,0.00,Acu-Link.com,2013-06-02 11:28:00,
2013-06-02 07:43:00,69.8,68.9,29.80,SW,225,0.0,-999.0,97,-99.99,,,0.00,Acu-Link.com,2013-06-02 11:43:00,
2013-06-02 07:58:00,71.6,69.5,29.80,WNW,292,1.1,-999.0,93,-99.99,,,0.00,Acu-Link.com,2013-06-02 11:58:00,
2013-06-02 08:14:00,73.2,69.8,29.80,West,270,1.7,-999.0,89,-99.99,,,0.00,Acu-Link.com,2013-06-02 12:14:00,
2013-06-02 08:29:00,74.8,70.0,29.79,North,0,1.7,-999.0,85,-99.99,,,0.00,Acu-Link.com,2013-06-02 12:29:00,
2013-06-02 08:44:00,74.8,69.6,29.79,West,270,1.1,-999.0,84,-99.99,,,0.00,Acu-Link.com,2013-06-02 12:44:00,
2013-06-02 08:59:00,75.9,70.4,29.78,North,0,2.2,-999.0,83,-99.99,,,0.00,Acu-Link.com,2013-06-02 12:59:00,
2013-06-02 09:15:00,76.3,70.4,29.78,NNW,337,0.0,-999.0,82,-99.99,,,0.00,Acu-Link.com,2013-06-02 13:15:00,
2013-06-02 09:30:00,77.4,71.5,29.77,NE,45,1.7,-999.0,82,-99.99,,,0.00,Acu-Link.com,2013-06-02 13:30:00,
2013-06-02 09:45:00,78.4,70.6,29.76,ENE,67,3.2,-999.0,77,-99.99,,,0.00,Acu-Link.com,2013-06-02 13:45:00,
2013-06-02 10:00:00,79.7,71.1,29.76,West,270,2.7,-999.0,75,-99.99,,,0.00,Acu-Link.com,2013-06-02 14:00:00,
2013-06-02 10:16:00,81.0,70.7,29.76,West,270,1.1,-999.0,71,-99.99,,,0.00,Acu-Link.com,2013-06-02 14:16:00,
2013-06-02 10:32:00,82.0,70.8,29.75,NNW,337,2.7,-999.0,69,-99.99,,,0.00,Acu-Link.com,2013-06-02 14:32:00,
2013-06-02 10:47:00,83.1,70.1,29.76,SSW,202,2.2,-999.0,65,-99.99,,,0.00,Acu-Link.com,2013-06-02 14:47:00,
2013-06-02 11:02:00,84.0,70.0,29.75,SSE,157,2.7,-999.0,63,-99.99,,,0.00,Acu-Link.com,2013-06-02 15:02:00,
2013-06-02 11:17:00,84.2,70.2,29.75,WNW,292,3.2,-999.0,63,-99.99,,,0.00,Acu-Link.com,2013-06-02 15:17:00,
2013-06-02 11:33:00,84.6,70.1,29.74,NNE,22,3.2,-999.0,62,-99.99,,,0.00,Acu-Link.com,2013-06-02 15:33:00,
2013-06-02 11:48:00,85.5,69.5,29.74,West,270,4.2,-999.0,59,-99.99,,,0.00,Acu-Link.com,2013-06-02 15:48:00,
2013-06-02 12:03:00,85.5,69.0,29.73,NNW,337,3.7,-999.0,58,-99.99,,,0.00,Acu-Link.com,2013-06-02 16:03:00,
2013-06-02 12:18:00,86.7,69.1,29.72,NNW,337,5.3,-999.0,56,-99.99,,,0.00,Acu-Link.com,2013-06-02 16:18:00,
2013-06-02 12:33:00,89.2,69.8,29.73,North,0,3.7,-999.0,53,-99.99,,,0.00,Acu-Link.com,2013-06-02 16:33:00,
2013-06-02 12:48:00,89.2,69.8,29.73,West,270,2.7,-999.0,53,-99.99,,,0.00,Acu-Link.com,2013-06-02 16:48:00,
2013-06-02 13:03:00,91.9,71.1,29.72,North,0,1.7,-999.0,51,-99.99,,,0.00,Acu-Link.com,2013-06-02 17:03:00,
2013-06-02 13:18:00,87.3,69.1,29.71,West,270,2.7,-999.0,55,-99.99,,,0.00,Acu-Link.com,2013-06-02 17:18:00,
2013-06-02 13:34:00,86.0,70.0,29.70,NNW,337,2.7,-999.0,59,-99.99,,,0.00,Acu-Link.com,2013-06-02 17:34:00,
2013-06-02 13:49:00,87.1,70.0,29.68,SSE,157,1.7,-999.0,57,-99.99,,,0.00,Acu-Link.com,2013-06-02 17:49:00,
2013-06-02 14:05:00,87.6,69.4,29.68,NE,45,4.7,-999.0,55,-99.99,,,0.00,Acu-Link.com,2013-06-02 18:05:00,
2013-06-02 14:20:00,88.5,69.1,29.68,NW,315,2.2,-999.0,53,-99.99,,,0.00,Acu-Link.com,2013-06-02 18:20:00,
2013-06-02 14:35:00,89.2,70.3,29.68,ESE,112,1.1,-999.0,54,-99.99,,,0.00,Acu-Link.com,2013-06-02 18:35:00,
2013-06-02 14:50:00,87.4,70.3,29.65,East,90,1.1,-999.0,57,-99.99,,,0.00,Acu-Link.com,2013-06-02 18:50:00,
2013-06-02 15:06:00,87.1,69.5,29.67,South,180,0.0,-999.0,56,-99.99,,,0.00,Acu-Link.com,2013-06-02 19:06:00,
2013-06-02 15:21:00,79.5,63.4,29.70,ESE,112,5.3,-999.0,58,-99.99,,,0.00,Acu-Link.com,2013-06-02 19:21:00,
2013-06-02 15:36:00,73.2,63.2,29.72,ESE,112,2.2,-999.0,71,-99.99,,,0.00,Acu-Link.com,2013-06-02 19:36:00,
2013-06-02 15:51:00,68.5,63.8,29.74,WNW,292,4.2,-999.0,85,-99.99,,,0.04,Acu-Link.com,2013-06-02 19:51:00,
2013-06-02 16:06:00,67.1,64.7,29.74,ENE,67,1.7,-999.0,92,-99.99,,,0.48,Acu-Link.com,2013-06-02 20:06:00,
2013-06-02 16:21:00,66.0,64.5,29.77,NE,45,2.2,-999.0,95,-99.99,,,0.73,Acu-Link.com,2013-06-02 20:21:00,
2013-06-02 16:37:00,65.5,64.3,29.75,NW,315,1.7,-999.0,96,-99.99,,,1.21,Acu-Link.com,2013-06-02 20:37:00,
2013-06-02 16:52:00,65.5,64.3,29.75,SW,225,1.7,-999.0,96,-99.99,,,1.25,Acu-Link.com,2013-06-02 20:52:00,
2013-06-02 17:07:00,65.5,64.6,29.75,SW,225,1.7,-999.0,97,-99.99,,,1.29,Acu-Link.com,2013-06-02 21:07:00,
2013-06-02 17:23:00,65.7,65.1,29.76,West,270,2.2,-999.0,98,-99.99,,,1.29,Acu-Link.com,2013-06-02 21:23:00,
2013-06-02 17:38:00,65.7,65.1,29.75,NNW,337,1.7,-999.0,98,-99.99,,,1.29,Acu-Link.com,2013-06-02 21:38:00,
2013-06-02 17:53:00,65.8,65.2,29.74,NE,45,0.0,-999.0,98,-99.99,,,1.29,Acu-Link.com,2013-06-02 21:53:00,
2013-06-02 18:09:00,65.8,65.2,29.75,SSE,157,0.0,-999.0,98,-99.99,,,1.29,Acu-Link.com,2013-06-02 22:09:00,
2013-06-02 18:24:00,65.8,65.2,29.76,NNE,22,0.0,-999.0,98,-99.99,,,1.29,Acu-Link.com,2013-06-02 22:24:00,
2013-06-02 18:39:00,65.5,64.9,29.76,North,0,0.0,-999.0,98,-99.99,,,1.36,Acu-Link.com,2013-06-02 22:39:00,
2013-06-02 18:54:00,65.1,64.5,29.73,North,0,0.0,-999.0,98,-99.99,,,1.38,Acu-Link.com,2013-06-02 22:54:00,
2013-06-02 19:10:00,65.3,64.7,29.73,ENE,67,0.0,-999.0,98,-99.99,,,1.38,Acu-Link.com,2013-06-02 23:10:00,
2013-06-02 19:25:00,65.5,64.9,29.75,NNW,337,0.0,-999.0,98,-99.99,,,1.38,Acu-Link.com,2013-06-02 23:25:00,
2013-06-02 19:40:00,65.7,65.1,29.74,West,270,0.0,-999.0,98,-99.99,,,1.38,Acu-Link.com,2013-06-02 23:40:00,
2013-06-02 19:56:00,65.8,65.2,29.74,NNW,337,0.0,-999.0,98,-99.99,,,1.38,Acu-Link.com,2013-06-02 23:56:00,
2013-06-02 20:11:00,65.7,65.1,29.75,NE,45,0.0,-999.0,98,-99.99,,,1.38,Acu-Link.com,2013-06-03 00:11:00,
2013-06-02 20:26:00,65.5,64.9,29.74,NNW,337,0.0,-999.0,98,-99.99,,,1.38,Acu-Link.com,2013-06-03 00:26:00,
2013-06-02 20:42:00,65.3,64.7,29.75,NNE,22,0.0,-999.0,98,-99.99,,,1.38,Acu-Link.com,2013-06-03 00:42:00,
2013-06-02 20:57:00,65.1,64.5,29.75,NNE,22,0.0,-999.0,98,-99.99,,,1.38,Acu-Link.com,2013-06-03 00:57:00,
2013-06-02 21:12:00,64.9,64.3,29.76,SSE,157,0.0,-999.0,98,-99.99,,,1.38,Acu-Link.com,2013-06-03 01:12:00,
2013-06-02 21:27:00,64.9,64.3,29.77,ENE,67,0.0,-999.0,98,-99.99,,,1.38,Acu-Link.com,2013-06-03 01:27:00,
2013-06-02 21:43:00,64.6,64.0,29.76,WSW,247,0.0,-999.0,98,-99.99,,,1.38,Acu-Link.com,2013-06-03 01:43:00,
2013-06-02 21:58:00,64.8,64.2,29.78,NW,315,0.0,-999.0,98,-99.99,,,1.38,Acu-Link.com,2013-06-03 01:58:00,
2013-06-02 22:13:00,64.8,64.2,29.79,NE,45,0.0,-999.0,98,-99.99,,,1.59,Acu-Link.com,2013-06-03 02:13:00,
2013-06-02 22:29:00,64.9,64.3,29.78,SSW,202,0.0,-999.0,98,-99.99,,,1.59,Acu-Link.com,2013-06-03 02:29:00,
2013-06-02 22:44:00,64.9,64.3,29.77,NNE,22,0.0,-999.0,98,-99.99,,,1.59,Acu-Link.com,2013-06-03 02:44:00,
2013-06-02 22:59:00,64.9,64.3,29.78,NNE,22,0.0,-999.0,98,-99.99,,,1.59,Acu-Link.com,2013-06-03 02:59:00,
2013-06-02 23:15:00,64.8,64.2,29.78,SE,135,0.0,-999.0,98,-99.99,,,1.59,Acu-Link.com,2013-06-03 03:15:00,
2013-06-02 23:30:00,64.8,64.2,29.79,SW,225,0.0,-999.0,98,-99.99,,,1.59,Acu-Link.com,2013-06-03 03:30:00,
2013-06-02 23:45:00,64.6,64.0,29.79,ESE,112,0.0,-999.0,98,-99.99,,,1.59,Acu-Link.com,2013-06-03 03:45:00,